createdAt,value
2018-05-08T00:02:09.904Z,5.80
2018-05-08T00:04:37.556Z,3.13
2018-05-08T00:07:05.003Z,4.27
2018-05-08T00:09:32.450Z,4.47
2018-05-08T00:12:00.343Z,3.83
2018-05-08T00:14:29.175Z,4.80
2018-05-08T00:16:57.402Z,4.13
2018-05-08T00:19:25.844Z,3.67
2018-05-08T00:21:53.278Z,3.57
2018-05-08T00:24:21.522Z,4.03
2018-05-08T00:26:49.184Z,4.27
2018-05-08T00:29:16.625Z,2.40
2018-05-08T00:31:44.097Z,4.27
2018-05-08T00:34:12.382Z,3.53
2018-05-08T00:36:39.823Z,4.20
2018-05-08T00:39:07.282Z,2.47
2018-05-08T00:41:34.959Z,4.20
2018-05-08T00:44:02.390Z,2.83
2018-05-08T00:46:29.845Z,4.17
2018-05-08T00:48:57.628Z,3.40
2018-05-08T00:51:25.082Z,3.60
2018-05-08T00:53:52.527Z,2.87
2018-05-08T00:56:21.243Z,3.70
2018-05-08T00:58:48.677Z,4.37
2018-05-08T01:01:16.150Z,3.43
2018-05-08T01:03:43.906Z,6.80
2018-05-08T01:06:11.354Z,3.10
2018-05-08T01:08:41.382Z,3.27
2018-05-08T01:11:09.142Z,4.13
2018-05-08T01:13:36.614Z,4.20
2018-05-08T01:16:04.420Z,3.07
2018-05-08T01:18:32.859Z,3.03
2018-05-08T01:21:00.304Z,3.03
2018-05-08T01:23:27.780Z,3.67
2018-05-08T01:25:56.046Z,2.63
2018-05-08T01:28:23.494Z,3.63
2018-05-08T01:30:50.935Z,3.37
2018-05-08T01:33:18.836Z,2.60
2018-05-08T01:35:46.279Z,3.07
2018-05-08T01:38:13.726Z,3.77
2018-05-08T01:40:41.402Z,4.53
2018-05-08T01:43:08.849Z,3.70
2018-05-08T01:45:36.295Z,2.43
2018-05-08T01:48:04.195Z,3.90
2018-05-08T01:50:31.633Z,3.05
2018-05-08T01:52:59.074Z,2.63
2018-05-08T01:55:26.754Z,2.80
2018-05-08T01:57:54.204Z,2.57
2018-05-08T02:00:21.641Z,2.50
2018-05-08T02:02:49.137Z,4.67
2018-05-08T02:05:16.578Z,3.92
2018-05-08T02:07:47.472Z,4.00
2018-05-08T02:10:15.743Z,2.90
2018-05-08T02:12:44.002Z,2.37
2018-05-08T02:15:11.451Z,2.90
2018-05-08T02:17:39.419Z,3.20
2018-05-08T02:20:06.865Z,2.77
2018-05-08T02:22:34.313Z,2.10
2018-05-08T02:25:03.222Z,2.77
2018-05-08T02:27:30.680Z,2.53
2018-05-08T02:29:58.144Z,2.40
2018-05-08T02:32:25.797Z,2.00
2018-05-08T02:34:53.258Z,3.03
2018-05-08T02:37:20.702Z,1.90
2018-05-08T02:39:48.584Z,3.37
2018-05-08T02:42:16.030Z,1.97
2018-05-08T02:44:43.498Z,2.70
2018-05-08T02:47:12.115Z,2.00
2018-05-08T02:49:40.340Z,2.60
2018-05-08T02:52:07.827Z,2.73
2018-05-08T02:54:35.579Z,2.33
2018-05-08T02:57:03.032Z,2.10
2018-05-08T02:59:30.483Z,1.97
2018-05-08T03:01:58.269Z,2.33
2018-05-08T03:04:25.718Z,2.83
2018-05-08T03:06:53.155Z,1.93
2018-05-08T03:09:24.421Z,3.10
2018-05-08T03:11:51.862Z,2.83
2018-05-08T03:14:19.303Z,1.87
2018-05-08T03:16:47.007Z,2.27
2018-05-08T03:19:14.774Z,2.93
2018-05-08T03:21:42.223Z,3.00
2018-05-08T03:24:10.194Z,1.83
2018-05-08T03:26:37.645Z,1.83
2018-05-08T03:29:05.094Z,2.20
2018-05-08T03:31:33.794Z,2.47
2018-05-08T03:34:01.247Z,2.83
2018-05-08T03:36:28.708Z,2.53
2018-05-08T03:38:56.579Z,1.80
2018-05-08T03:41:24.031Z,1.90
2018-05-08T03:43:51.490Z,1.70
2018-05-08T03:46:19.265Z,2.30
2018-05-08T03:48:46.709Z,2.23
2018-05-08T03:51:14.176Z,2.03
2018-05-08T03:53:43.156Z,2.13
2018-05-08T03:56:10.613Z,1.50
2018-05-08T03:58:38.083Z,2.60
2018-05-08T04:01:17.727Z,2.17
2018-05-08T04:03:57.178Z,1.97
2018-05-08T04:06:34.559Z,1.80
2018-05-08T04:09:02.007Z,1.30
2018-05-08T04:11:29.479Z,1.20
2018-05-08T04:13:58.264Z,2.27
2018-05-08T04:16:25.710Z,1.20
2018-05-08T04:18:53.160Z,1.83
2018-05-08T04:21:21.962Z,13.70
2018-05-08T04:23:49.407Z,9.00
2018-05-08T04:26:16.878Z,8.13
2018-05-08T04:28:44.631Z,5.75
2018-05-08T04:31:12.074Z,7.07
2018-05-08T04:33:39.524Z,6.03
2018-05-08T04:36:08.044Z,6.87
2018-05-08T04:38:35.481Z,11.43
2018-05-08T04:41:02.927Z,5.43
2018-05-08T04:43:30.609Z,5.37
2018-05-08T04:45:58.057Z,4.20
2018-05-08T04:48:25.541Z,4.83
2018-05-08T04:50:53.089Z,3.33
2018-05-08T04:53:20.564Z,5.53
2018-05-08T04:55:48.064Z,7.60
2018-05-08T04:58:16.181Z,6.20
2018-05-08T05:00:43.618Z,2.70
2018-05-08T05:03:11.077Z,4.65
2018-05-08T05:05:38.759Z,6.70
2018-05-08T05:08:06.227Z,5.00
2018-05-08T05:10:33.771Z,6.10
2018-05-08T05:13:01.543Z,6.00
2018-05-08T05:15:29.017Z,3.17
2018-05-08T05:17:56.491Z,5.30
2018-05-08T05:20:26.786Z,3.07
2018-05-08T05:22:55.794Z,2.73
2018-05-08T05:25:23.233Z,4.93
2018-05-08T05:27:50.936Z,3.67
2018-05-08T05:30:19.187Z,2.77
2018-05-08T05:32:46.631Z,3.57
2018-05-08T05:35:14.407Z,6.73
2018-05-08T05:37:41.850Z,6.77
2018-05-08T05:40:09.301Z,7.68
2018-05-08T05:45:10.571Z,6.78
2018-05-08T05:47:38.028Z,4.87
2018-05-08T05:50:05.855Z,3.73
2018-05-08T05:52:34.078Z,3.63
2018-05-08T05:55:01.530Z,3.53
2018-05-08T05:57:29.450Z,2.77
2018-05-08T05:59:57.671Z,2.93
2018-05-08T06:02:25.250Z,10.23
2018-05-08T06:04:53.422Z,6.20
2018-05-08T06:07:20.878Z,2.83
2018-05-08T06:09:49.361Z,5.73
2018-05-08T06:12:17.230Z,4.00
2018-05-08T06:14:44.678Z,2.30
2018-05-08T06:17:12.119Z,2.63
2018-05-08T06:19:39.715Z,4.73
2018-05-08T06:22:07.254Z,7.00
2018-05-08T06:24:34.983Z,5.07
2018-05-08T06:27:03.411Z,2.37
2018-05-08T06:29:30.855Z,3.67
2018-05-08T06:31:58.303Z,5.33
2018-05-08T06:34:25.999Z,4.63
2018-05-08T06:36:53.442Z,8.63
2018-05-08T06:39:20.911Z,6.93
2018-05-08T06:41:48.880Z,5.20
2018-05-08T06:44:16.497Z,5.47
2018-05-08T06:46:43.980Z,6.47
2018-05-08T06:49:12.883Z,4.23
2018-05-08T06:51:40.318Z,3.13
2018-05-08T06:54:07.797Z,4.17
2018-05-08T06:56:35.483Z,3.03
2018-05-08T06:59:03.066Z,3.40
2018-05-08T07:01:30.469Z,4.00
2018-05-08T07:03:58.232Z,6.40
2018-05-08T07:06:25.703Z,2.73
2018-05-08T07:08:56.047Z,5.97
2018-05-08T07:11:25.327Z,4.10
2018-05-08T07:13:52.775Z,8.33
2018-05-08T07:16:20.244Z,4.47
2018-05-08T07:18:48.100Z,2.47
2018-05-08T07:21:15.558Z,3.87
2018-05-08T07:23:43.023Z,5.37
2018-05-08T07:26:11.406Z,3.97
2018-05-08T07:28:38.854Z,4.40
2018-05-08T07:31:06.336Z,5.00
2018-05-08T07:33:33.918Z,3.03
2018-05-08T07:36:02.167Z,3.07
2018-05-08T07:38:29.712Z,3.57
2018-05-08T07:40:57.783Z,2.40
2018-05-08T07:43:25.233Z,4.10
2018-05-08T07:45:52.679Z,2.27
2018-05-08T07:48:21.438Z,2.83
2018-05-08T07:50:48.886Z,2.97
2018-05-08T07:53:17.119Z,1.87
2018-05-08T07:55:44.778Z,1.87
2018-05-08T07:58:12.226Z,1.97
2018-05-08T08:00:39.688Z,3.70
2018-05-08T08:03:07.415Z,2.93
2018-05-08T08:05:35.611Z,2.40
2018-05-08T08:08:05.979Z,3.17
2018-05-08T08:10:34.031Z,2.13
2018-05-08T08:13:01.491Z,3.97
2018-05-08T08:15:28.938Z,2.40
2018-05-08T08:17:56.711Z,2.13
2018-05-08T08:20:24.168Z,1.80
2018-05-08T08:22:51.621Z,2.60
2018-05-08T08:25:20.007Z,2.22
2018-05-08T08:27:47.450Z,1.83
2018-05-08T08:30:14.926Z,2.40
2018-05-08T08:32:42.787Z,2.80
2018-05-08T08:35:10.228Z,2.50
2018-05-08T08:37:37.687Z,2.07
2018-05-08T08:40:05.642Z,2.73
2018-05-08T08:42:33.096Z,1.63
2018-05-08T08:45:00.583Z,2.30
2018-05-08T08:47:28.918Z,2.43
2018-05-08T08:49:56.350Z,1.40
2018-05-08T08:52:23.835Z,2.33
2018-05-08T08:54:51.560Z,1.83
2018-05-08T08:57:19.003Z,2.00
2018-05-08T08:59:46.467Z,1.77
2018-05-08T09:02:13.994Z,2.47
2018-05-08T09:04:41.435Z,3.83
2018-05-08T09:07:08.950Z,2.67
2018-05-08T09:09:39.361Z,3.92
2018-05-08T09:12:06.834Z,4.03
2018-05-08T09:14:34.275Z,1.37
2018-05-08T09:17:01.975Z,2.53
2018-05-08T09:19:30.187Z,1.97
2018-05-08T09:21:57.624Z,2.13
2018-05-08T09:24:25.439Z,2.33
2018-05-08T09:26:52.885Z,11.07
2018-05-08T09:29:20.362Z,2.10
2018-05-08T09:31:48.814Z,1.83
2018-05-08T09:34:16.183Z,3.17
2018-05-08T09:36:43.628Z,4.87
2018-05-08T09:39:11.314Z,3.37
2018-05-08T09:41:38.763Z,3.70
2018-05-08T09:44:06.216Z,2.10
2018-05-08T09:46:33.991Z,1.37
2018-05-08T09:49:01.464Z,3.10
2018-05-08T09:51:28.898Z,2.43
2018-05-08T09:53:56.870Z,3.07
2018-05-08T09:56:24.335Z,2.87
2018-05-08T09:58:51.778Z,3.00
2018-05-08T10:01:19.774Z,3.50
2018-05-08T10:03:47.226Z,2.10
2018-05-08T10:06:14.657Z,3.13
2018-05-08T10:08:43.363Z,2.70
2018-05-08T10:11:12.314Z,9.93
2018-05-08T10:13:39.759Z,6.30
2018-05-08T10:16:07.483Z,6.23
2018-05-08T10:18:34.931Z,4.97
2018-05-08T10:21:02.379Z,4.93
2018-05-08T10:23:30.282Z,3.63
2018-05-08T10:25:57.734Z,2.10
2018-05-08T10:28:25.172Z,7.43
2018-05-08T10:30:53.647Z,4.47
2018-05-08T10:33:21.099Z,2.53
2018-05-08T10:35:48.538Z,3.53
2018-05-08T10:38:16.340Z,4.27
2018-05-08T10:40:43.786Z,2.57
2018-05-08T10:43:11.223Z,4.87
2018-05-08T10:45:39.015Z,6.80
2018-05-08T10:48:06.471Z,4.00
2018-05-08T10:50:33.911Z,6.80
2018-05-08T10:53:02.522Z,3.27
2018-05-08T10:55:29.967Z,5.07
2018-05-08T10:57:57.427Z,3.00
2018-05-08T11:00:26.227Z,3.67
2018-05-08T11:02:55.424Z,3.83
2018-05-08T11:05:22.863Z,4.57
2018-05-08T11:07:50.650Z,2.12
2018-05-08T11:10:18.167Z,2.67
2018-05-08T11:12:53.141Z,2.58
2018-05-08T11:15:20.575Z,4.83
2018-05-08T11:17:48.052Z,2.93
2018-05-08T11:20:15.922Z,9.20
2018-05-08T11:22:43.380Z,8.27
2018-05-08T11:25:10.928Z,5.20
2018-05-08T11:27:38.550Z,6.50
2018-05-08T11:30:05.998Z,8.55
2018-05-08T11:32:33.446Z,6.07
2018-05-08T11:35:02.712Z,6.10
2018-05-08T11:37:30.168Z,5.77
2018-05-08T11:39:57.624Z,5.73
2018-05-08T11:42:25.388Z,4.77
2018-05-08T11:44:52.837Z,7.43
2018-05-08T11:47:20.283Z,5.50
2018-05-08T11:49:48.032Z,5.65
2018-05-08T11:52:15.479Z,8.60
2018-05-08T11:54:42.932Z,3.77
2018-05-08T11:57:11.665Z,3.50
2018-05-08T11:59:39.113Z,4.35
2018-05-08T12:02:06.561Z,3.30
2018-05-08T12:04:34.058Z,8.83
2018-05-08T12:07:01.517Z,5.87
2018-05-08T12:09:28.960Z,4.63
2018-05-08T12:11:57.354Z,8.50
2018-05-08T12:14:24.877Z,5.20
2018-05-08T12:16:52.252Z,5.60
2018-05-08T12:19:21.036Z,7.25
2018-05-08T12:21:48.509Z,9.65
2018-05-08T12:24:15.955Z,5.77
2018-05-08T12:26:43.472Z,3.03
2018-05-08T12:29:10.983Z,6.13
2018-05-08T12:31:38.427Z,7.22
2018-05-08T12:34:10.083Z,4.83
2018-05-08T12:36:37.542Z,5.57
2018-05-08T12:39:06.147Z,6.13
2018-05-08T12:41:33.995Z,6.13
2018-05-08T12:44:01.431Z,3.67
2018-05-08T12:46:28.910Z,5.82
2018-05-08T12:48:56.978Z,4.37
2018-05-08T12:51:24.435Z,3.00
2018-05-08T12:53:51.878Z,3.93
2018-05-08T12:56:19.571Z,3.43
2018-05-08T12:58:47.128Z,4.97
2018-05-08T13:01:14.588Z,5.95
2018-05-08T13:03:43.073Z,4.45
2018-05-08T13:06:10.524Z,4.80
2018-05-08T13:08:41.411Z,5.07
2018-05-08T13:11:09.122Z,4.20
2018-05-08T13:13:36.775Z,3.33
2018-05-08T13:16:04.219Z,3.70
2018-05-08T13:18:32.212Z,3.90
2018-05-08T13:20:59.648Z,3.10
2018-05-08T13:23:27.123Z,4.32
2018-05-08T13:25:55.544Z,4.93
2018-05-08T13:28:23.759Z,3.23
2018-05-08T13:30:51.204Z,2.70
2018-05-08T13:33:19.312Z,3.10
2018-05-08T13:35:46.763Z,2.87
2018-05-08T13:38:14.200Z,3.35
2018-05-08T13:40:42.100Z,5.10
2018-05-08T13:43:09.551Z,4.62
2018-05-08T13:45:36.997Z,2.87
2018-05-08T13:48:05.210Z,4.40
2018-05-08T13:50:32.654Z,8.03
2018-05-08T13:53:00.110Z,3.40
2018-05-08T13:55:28.011Z,8.68
2018-05-08T13:57:56.238Z,4.73
2018-05-08T14:00:23.681Z,9.23
2018-05-08T14:02:51.472Z,6.28
2018-05-08T14:05:18.930Z,11.57
2018-05-08T14:07:49.991Z,10.07
2018-05-08T14:10:17.632Z,6.30
2018-05-08T14:12:45.950Z,12.07
2018-05-08T14:15:14.992Z,8.67
2018-05-08T14:17:42.444Z,4.45
2018-05-08T14:20:09.898Z,4.17
2018-05-08T14:22:37.787Z,7.65
2018-05-08T14:25:05.250Z,8.03
2018-05-08T14:27:32.699Z,8.02
2018-05-08T14:30:00.983Z,7.57
2018-05-08T14:32:29.318Z,14.02
2018-05-08T14:34:56.767Z,10.40
2018-05-08T14:37:24.868Z,9.20
2018-05-08T14:39:52.238Z,7.40
2018-05-08T14:42:19.712Z,4.45
2018-05-08T14:44:47.358Z,6.93
2018-05-08T14:47:14.829Z,8.10
2018-05-08T14:49:42.271Z,8.48
2018-05-08T14:52:10.515Z,7.03
2018-05-08T14:54:37.952Z,7.80
2018-05-08T14:57:06.196Z,8.73
2018-05-08T14:59:34.158Z,11.02
2018-05-08T15:02:01.599Z,7.57
2018-05-08T15:04:29.183Z,9.73
2018-05-08T15:06:57.652Z,7.53
2018-05-08T15:09:27.671Z,7.10
2018-05-08T15:11:55.127Z,6.27
2018-05-08T15:14:22.684Z,6.43
2018-05-08T15:16:50.655Z,12.23
2018-05-08T15:19:18.108Z,14.30
2018-05-08T15:21:45.882Z,10.03
2018-05-08T15:24:13.330Z,13.10
2018-05-08T15:26:40.797Z,13.50
2018-05-08T15:29:09.118Z,26.42
2018-05-08T15:31:36.527Z,14.73
2018-05-08T15:34:04.050Z,12.50
2018-05-08T15:36:31.840Z,12.67
2018-05-08T15:38:59.287Z,17.55
2018-05-08T15:41:26.730Z,11.90
2018-05-08T15:43:54.350Z,11.63
2018-05-08T15:46:21.804Z,10.17
2018-05-08T15:48:49.246Z,7.80
2018-05-08T15:51:18.130Z,8.60
2018-05-08T15:53:45.622Z,12.77
2018-05-08T15:56:13.058Z,9.17
2018-05-08T15:58:40.708Z,9.90
2018-05-08T16:01:08.170Z,8.77
2018-05-08T16:03:35.611Z,9.70
2018-05-08T16:06:03.303Z,16.02
2018-05-08T16:08:34.635Z,9.30
2018-05-08T16:11:02.084Z,13.00
2018-05-08T16:13:30.162Z,9.25
2018-05-08T16:15:57.616Z,10.90
2018-05-08T16:18:25.131Z,9.93
2018-05-08T16:20:52.846Z,9.70
2018-05-08T16:23:20.294Z,11.30
2018-05-08T16:25:47.741Z,8.40
2018-05-08T16:28:16.554Z,13.97
2018-05-08T16:30:44.111Z,16.83
2018-05-08T16:33:11.567Z,11.17
2018-05-08T16:35:39.124Z,9.40
2018-05-08T16:38:06.576Z,13.62
2018-05-08T16:40:34.058Z,17.65
2018-05-08T16:43:01.817Z,16.83
2018-05-08T16:45:29.272Z,12.80
2018-05-08T16:47:56.841Z,22.20
2018-05-08T16:50:29.712Z,20.58
2018-05-08T16:52:57.164Z,18.00
2018-05-08T16:55:24.610Z,21.87
2018-05-08T16:57:52.705Z,20.55
2018-05-08T17:00:20.151Z,19.80
2018-05-08T17:02:47.615Z,20.17
2018-05-08T17:05:15.586Z,17.58
2018-05-08T17:07:45.710Z,27.90
2018-05-08T17:10:13.264Z,22.27
2018-05-08T17:12:40.767Z,24.37
2018-05-08T17:24:28.950Z,38.90
2018-05-08T17:26:57.763Z,49.50
2018-05-08T17:29:26.652Z,44.70
2018-05-08T17:31:55.725Z,39.95
2018-05-08T17:34:24.529Z,52.03
2018-05-08T17:36:53.333Z,66.97
2018-05-08T17:39:22.501Z,70.50
2018-05-08T17:41:51.291Z,55.25
2018-05-08T17:44:20.171Z,50.60
2018-05-08T17:46:49.166Z,53.78
2018-05-08T17:49:18.253Z,52.72
2018-05-08T17:51:47.122Z,49.33
2018-05-08T17:54:16.046Z,54.80
2018-05-08T17:56:44.853Z,47.83
2018-05-08T17:59:13.862Z,48.08
2018-05-08T18:01:42.717Z,54.65
2018-05-08T18:04:12.664Z,45.90
2018-05-08T18:06:41.443Z,45.45
2018-05-08T18:09:14.008Z,38.83
2018-05-08T18:11:42.898Z,50.50
2018-05-08T18:14:11.785Z,43.58
2018-05-08T18:16:40.674Z,51.50
2018-05-08T18:19:09.478Z,40.45
2018-05-08T18:21:38.547Z,45.55
2018-05-08T18:24:07.366Z,42.80
2018-05-08T18:26:36.196Z,41.42
2018-05-08T18:29:05.139Z,38.65
2018-05-08T18:31:33.940Z,38.05
2018-05-08T18:34:03.013Z,40.42
2018-05-08T18:36:31.908Z,35.97
2018-05-08T18:39:00.746Z,38.63
2018-05-08T18:41:29.758Z,41.47
2018-05-08T18:43:58.570Z,31.77
2018-05-08T18:46:27.406Z,35.67
2018-05-08T18:48:57.695Z,36.85
2018-05-08T18:51:26.510Z,42.13
2018-05-08T18:53:55.327Z,41.15
2018-05-08T18:56:24.484Z,35.38
2018-05-08T18:58:53.286Z,32.75
2018-05-08T19:01:22.100Z,35.63
2018-05-08T19:03:51.195Z,38.88
2018-05-08T19:06:19.857Z,31.67
2018-05-08T19:08:51.814Z,32.53
2018-05-08T19:11:26.378Z,31.85
2018-05-08T19:13:55.195Z,38.15
2018-05-08T19:16:24.001Z,26.65
2018-05-08T19:18:58.499Z,32.17
2018-05-08T19:21:27.512Z,28.08
2018-05-08T19:24:02.015Z,31.10
2018-05-08T19:26:31.754Z,25.92
2018-05-08T19:29:06.311Z,32.58
2018-05-08T19:31:35.471Z,28.35
2018-05-08T19:34:04.273Z,26.55
2018-05-08T19:36:39.107Z,30.45
2018-05-08T19:39:07.963Z,30.12
2018-05-08T19:41:36.735Z,32.78
2018-05-08T19:44:05.587Z,28.02
2018-05-08T19:46:34.497Z,25.37
2018-05-08T19:49:03.580Z,24.67
2018-05-08T19:51:32.487Z,24.87
2018-05-08T19:54:01.369Z,28.75
2018-05-08T19:56:30.467Z,28.92
2018-05-08T19:58:59.349Z,26.90
2018-05-08T20:01:29.117Z,23.98
2018-05-08T20:03:58.050Z,22.37
2018-05-08T20:06:26.937Z,21.40
2018-05-08T20:08:59.209Z,28.42
2018-05-08T20:11:28.011Z,23.52
2018-05-08T20:13:56.911Z,22.80
2018-05-08T20:16:27.328Z,23.92
2018-05-08T20:18:56.141Z,30.55
2018-05-08T20:21:25.103Z,26.15
2018-05-08T20:23:53.954Z,20.25
2018-05-08T20:26:22.789Z,23.90
2018-05-08T20:28:51.594Z,24.00
2018-05-08T20:31:21.183Z,21.12
2018-05-08T20:33:49.992Z,22.23
2018-05-08T20:36:18.869Z,23.50
